Grand Valley, Canada
Current Conditions -  °F | °C
As of 1:00 PM on Saturday 25 Oct 2014 (Local Time) from CYKF Reporting Station
Haze Haze  
Wind Chill: 54°   Ceiling: 1400
Heat Index: 54°   Visibility: 5mi
Dew Point: 50°   Wind: 17mph
Humidity: 88%   Direction: 260°W
Pressure: 29.67"   Gusts: 29mph
Location:  43.9°N, 80.32°W
Report Text: CYKF 251700Z AUTO 26015G25KT 5SM HZ OVC014 12/10 A2967 RMK SLP051 DENSITY ALT 1200FT
Loading
Personal Weather Stations






























Interactive Weather Map
Tropical Storm Tracking
New forecast layout! Learn more

10-Day Weather Forecast

Advertisements
Track Severe Weather on mobile